PWSweather.com
Personal Weather Stations
Station Observations
UXOLA
Alcoy, AlcoyES

AlcoyAlcoyES

Lat: 38.70299, Lon: -0.48184

Elevation: 1935

Station Type: PCE FWS-20,

http://www.fiestasalcoy.xyz

High Low Average
Temperature 59.9°F15.5°C 50.2°F10.1°C 55.3°F12.9°C
Dew Point 46.2°F7.9°C 37.0°F2.8°C 42.1°F5.6°C
Winds 18.3 mph 29.5 kmh Calm Calm 8.0 mph WSW12.9 kmh WSW
Wind Gusts 28.2 mph45.4 kmh 2.2 mph3.5 kmh 15.0 mph24.1 kmh
Humidity 71% 53% 61%
Pressure 29.67 in1004.7 mb 29.43 in996.6 mb -
Precipitation 0.07 in1.8 mm - -
Hour Temp Dew Point Humidity Winds Wind Gusts Pressure Precip Precip Rate Daily Precip Total
12:00 AM 57.0°F13.9°C 41.9°F5.5°C 57% 3.8 mph W6.1 kmh W 10.7 mph17.2 kmh 29.66 in1004.4 mb 0.00 in0.0 mm 0.00 in0.0 mm 0.00 in0.0 mm
12:15 AM 57.4°F14.1°C 41.8°F5.4°C 56% 4.5 mph WSW7.2 kmh WSW 12.1 mph19.5 kmh 29.65 in1004.1 mb 0.00 in0.0 mm 0.00 in0.0 mm 0.00 in0.0 mm
12:30 AM 56.8°F13.8°C 41.8°F5.4°C 57% 4.5 mph W7.2 kmh W 9.2 mph14.8 kmh 29.66 in1004.4 mb 0.00 in0.0 mm 0.00 in0.0 mm 0.00 in0.0 mm
12:45 AM 56.3°F13.5°C 41.7°F5.4°C 58% 6.9 mph WSW11.1 kmh WSW 9.8 mph15.8 kmh 29.66 in1004.4 mb 0.00 in0.0 mm 0.00 in0.0 mm 0.00 in0.0 mm
01:00 AM 55.8°F13.2°C 41.7°F5.4°C 59% 4.5 mph WSW7.2 kmh WSW 9.2 mph14.8 kmh 29.67 in1004.7 mb 0.00 in0.0 mm 0.00 in0.0 mm 0.00 in0.0 mm
01:15 AM 55.6°F13.1°C 41.5°F5.3°C 59% 5.4 mph W8.7 kmh W 7.6 mph12.2 kmh 29.67 in1004.7 mb 0.00 in0.0 mm 0.00 in0.0 mm 0.00 in0.0 mm
01:30 AM 56.5°F13.6°C 41.0°F5.0°C 56% 8.3 mph WSW13.4 kmh WSW 17.4 mph28.0 kmh 29.66 in1004.4 mb 0.00 in0.0 mm 0.00 in0.0 mm 0.00 in0.0 mm
01:45 AM 57.0°F13.9°C 40.5°F4.7°C 54% 10.7 mph SW17.2 kmh SW 16.8 mph27.0 kmh 29.66 in1004.4 mb 0.00 in0.0 mm 0.00 in0.0 mm 0.00 in0.0 mm
02:00 AM 56.7°F13.7°C 40.7°F4.8°C 55% 10.7 mph WSW17.2 kmh WSW 14.5 mph23.3 kmh 29.67 in1004.7 mb 0.00 in0.0 mm 0.00 in0.0 mm 0.00 in0.0 mm
02:15 AM 55.9°F13.3°C 40.9°F4.9°C 57% 3.8 mph W6.1 kmh W 14.5 mph23.3 kmh 29.66 in1004.4 mb 0.00 in0.0 mm 0.00 in0.0 mm 0.00 in0.0 mm
02:30 AM 55.6°F13.1°C 41.0°F5.0°C 58% 6.0 mph W9.7 kmh W 9.8 mph15.8 kmh 29.66 in1004.4 mb 0.00 in0.0 mm 0.00 in0.0 mm 0.00 in0.0 mm
02:45 AM 55.2°F12.9°C 40.7°F4.8°C 58% 5.4 mph W8.7 kmh W 9.8 mph15.8 kmh 29.65 in1004.1 mb 0.00 in0.0 mm 0.00 in0.0 mm 0.00 in0.0 mm
03:00 AM 55.2°F12.9°C 40.7°F4.8°C 58% 6.0 mph WSW9.7 kmh WSW 7.6 mph12.2 kmh 29.65 in1004.1 mb 0.00 in0.0 mm 0.00 in0.0 mm 0.00 in0.0 mm
03:15 AM 55.2°F12.9°C 41.2°F5.1°C 59% 7.6 mph WSW12.2 kmh WSW 9.2 mph14.8 kmh 29.65 in1004.1 mb 0.00 in0.0 mm 0.00 in0.0 mm 0.00 in0.0 mm
03:30 AM 55.0°F12.8°C 41.0°F5.0°C 59% 4.5 mph W7.2 kmh W 12.1 mph19.5 kmh 29.65 in1004.1 mb 0.00 in0.0 mm 0.00 in0.0 mm 0.00 in0.0 mm
03:45 AM 55.0°F12.8°C 41.0°F5.0°C 59% 2.2 mph WSW3.5 kmh WSW 6.9 mph11.1 kmh 29.64 in1003.7 mb 0.00 in0.0 mm 0.00 in0.0 mm 0.00 in0.0 mm
04:00 AM 54.7°F12.6°C 40.6°F4.8°C 59% 0.7 mph WSW1.1 kmh WSW 5.4 mph8.7 kmh 29.64 in1003.7 mb 0.00 in0.0 mm 0.00 in0.0 mm 0.00 in0.0 mm
04:15 AM 53.6°F12.0°C 40.1°F4.5°C 60% 1.6 mph SW2.6 kmh SW 2.2 mph3.5 kmh 29.63 in1003.4 mb 0.00 in0.0 mm 0.00 in0.0 mm 0.00 in0.0 mm
04:30 AM 52.2°F11.2°C 40.4°F4.7°C 64% Calm Calm 2.2 mph3.5 kmh 29.63 in1003.4 mb 0.00 in0.0 mm 0.00 in0.0 mm 0.00 in0.0 mm
04:45 AM 51.3°F10.7°C 40.3°F4.6°C 66% 2.2 mph NW3.5 kmh NW 3.1 mph5.0 kmh 29.63 in1003.4 mb 0.00 in0.0 mm 0.00 in0.0 mm 0.00 in0.0 mm
05:00 AM 50.7°F10.4°C 40.2°F4.6°C 67% 3.8 mph NW6.1 kmh NW 4.5 mph7.2 kmh 29.62 in1003.0 mb 0.00 in0.0 mm 0.00 in0.0 mm 0.00 in0.0 mm
05:15 AM 51.6°F10.9°C 40.6°F4.8°C 66% 0.7 mph S1.1 kmh S 3.1 mph5.0 kmh 29.62 in1003.0 mb 0.00 in0.0 mm 0.00 in0.0 mm 0.00 in0.0 mm
05:30 AM 50.2°F10.1°C 40.0°F4.4°C 68% 3.8 mph WNW6.1 kmh WNW 6.9 mph11.1 kmh 29.61 in1002.7 mb 0.00 in0.0 mm 0.00 in0.0 mm 0.00 in0.0 mm
05:45 AM 52.9°F11.6°C 40.6°F4.8°C 63% 3.8 mph WSW6.1 kmh WSW 9.8 mph15.8 kmh 29.61 in1002.7 mb 0.00 in0.0 mm 0.00 in0.0 mm 0.00 in0.0 mm
06:00 AM 53.6°F12.0°C 40.1°F4.5°C 60% 3.1 mph WSW5.0 kmh WSW 9.2 mph14.8 kmh 29.61 in1002.7 mb 0.00 in0.0 mm 0.00 in0.0 mm 0.00 in0.0 mm
06:15 AM 53.6°F12.0°C 40.1°F4.5°C 60% 3.1 mph W5.0 kmh W 6.9 mph11.1 kmh 29.60 in1002.4 mb 0.00 in0.0 mm 0.00 in0.0 mm 0.00 in0.0 mm
06:30 AM 52.9°F11.6°C 40.6°F4.8°C 63% 3.8 mph WSW6.1 kmh WSW 6.0 mph9.7 kmh 29.61 in1002.7 mb 0.00 in0.0 mm 0.00 in0.0 mm 0.00 in0.0 mm
06:45 AM 53.1°F11.7°C 39.6°F4.2°C 60% Calm Calm 5.4 mph8.7 kmh 29.60 in1002.4 mb 0.00 in0.0 mm 0.00 in0.0 mm 0.00 in0.0 mm
07:00 AM 51.4°F10.8°C 39.7°F4.3°C 64% 1.6 mph WSW2.6 kmh WSW 3.8 mph6.1 kmh 29.60 in1002.4 mb 0.00 in0.0 mm 0.00 in0.0 mm 0.00 in0.0 mm
07:15 AM 52.2°F11.2°C 40.8°F4.9°C 65% 0.7 mph WSW1.1 kmh WSW 4.5 mph7.2 kmh 29.59 in1002.0 mb 0.00 in0.0 mm 0.00 in0.0 mm 0.00 in0.0 mm
07:30 AM 53.1°F11.7°C 40.4°F4.7°C 62% 4.5 mph W7.2 kmh W 6.9 mph11.1 kmh 29.59 in1002.0 mb 0.00 in0.0 mm 0.00 in0.0 mm 0.00 in0.0 mm
07:45 AM 52.5°F11.4°C 40.7°F4.8°C 64% 2.2 mph SW3.5 kmh SW 3.8 mph6.1 kmh 29.59 in1002.0 mb 0.00 in0.0 mm 0.00 in0.0 mm 0.00 in0.0 mm
08:00 AM 53.2°F11.8°C 40.1°F4.5°C 61% 2.2 mph WSW3.5 kmh WSW 6.9 mph11.1 kmh 29.59 in1002.0 mb 0.00 in0.0 mm 0.00 in0.0 mm 0.00 in0.0 mm
08:15 AM 53.2°F11.8°C 40.1°F4.5°C 61% Calm Calm 4.5 mph7.2 kmh 29.59 in1002.0 mb 0.00 in0.0 mm 0.00 in0.0 mm 0.00 in0.0 mm
08:30 AM 52.2°F11.2°C 42.7°F5.9°C 70% 5.4 mph NE8.7 kmh NE 8.3 mph13.4 kmh 29.60 in1002.4 mb 0.00 in0.0 mm 0.00 in0.0 mm 0.00 in0.0 mm
08:45 AM 52.2°F11.2°C 43.1°F6.2°C 71% 3.8 mph WSW6.1 kmh WSW 6.9 mph11.1 kmh 29.60 in1002.4 mb 0.00 in0.0 mm 0.00 in0.0 mm 0.00 in0.0 mm
09:00 AM 53.1°F11.7°C 42.0°F5.6°C 66% 4.5 mph WSW7.2 kmh WSW 11.4 mph18.3 kmh 29.59 in1002.0 mb 0.00 in0.0 mm 0.00 in0.0 mm 0.00 in0.0 mm
09:15 AM 54.1°F12.3°C 42.2°F5.7°C 64% 11.4 mph WSW18.3 kmh WSW 16.8 mph27.0 kmh 29.59 in1002.0 mb 0.00 in0.0 mm 0.00 in0.0 mm 0.00 in0.0 mm
09:30 AM 55.2°F12.9°C 42.4°F5.8°C 62% 14.5 mph WSW23.3 kmh WSW 16.8 mph27.0 kmh 29.57 in1001.4 mb 0.00 in0.0 mm 0.00 in0.0 mm 0.00 in0.0 mm
09:45 AM 56.1°F13.4°C 42.9°F6.1°C 61% 10.7 mph WSW17.2 kmh WSW 22.1 mph35.6 kmh 29.57 in1001.4 mb 0.00 in0.0 mm 0.00 in0.0 mm 0.00 in0.0 mm
10:00 AM 56.5°F13.6°C 42.8°F6.0°C 60% 15.2 mph SW24.5 kmh SW 22.8 mph36.7 kmh 29.56 in1001.0 mb 0.00 in0.0 mm 0.00 in0.0 mm 0.00 in0.0 mm
10:15 AM 56.7°F13.7°C 42.9°F6.1°C 60% 11.4 mph WSW18.3 kmh WSW 28.2 mph45.4 kmh 29.55 in1000.7 mb 0.00 in0.0 mm 0.00 in0.0 mm 0.00 in0.0 mm
10:30 AM 57.2°F14.0°C 43.5°F6.4°C 60% 13.6 mph SW21.9 kmh SW 24.4 mph39.3 kmh 29.55 in1000.7 mb 0.00 in0.0 mm 0.00 in0.0 mm 0.00 in0.0 mm
10:45 AM 57.4°F14.1°C 43.2°F6.2°C 59% 14.5 mph SW23.3 kmh SW 23.5 mph37.8 kmh 29.54 in1000.3 mb 0.00 in0.0 mm 0.00 in0.0 mm 0.00 in0.0 mm
11:00 AM 57.6°F14.2°C 43.8°F6.6°C 60% 8.3 mph WSW13.4 kmh WSW 19.7 mph31.7 kmh 29.54 in1000.3 mb 0.00 in0.0 mm 0.00 in0.0 mm 0.00 in0.0 mm
11:15 AM 58.5°F14.7°C 44.6°F7.0°C 60% 9.2 mph SSW14.8 kmh SSW 21.3 mph34.3 kmh 29.54 in1000.3 mb 0.00 in0.0 mm 0.00 in0.0 mm 0.00 in0.0 mm
11:30 AM 58.8°F14.9°C 43.6°F6.4°C 57% 11.4 mph WSW18.3 kmh WSW 20.6 mph33.2 kmh 29.55 in1000.7 mb 0.00 in0.0 mm 0.00 in0.0 mm 0.00 in0.0 mm
11:45 AM 59.9°F15.5°C 44.2°F6.8°C 56% 3.1 mph WSW5.0 kmh WSW 12.1 mph19.5 kmh 29.54 in1000.3 mb 0.00 in0.0 mm 0.00 in0.0 mm 0.00 in0.0 mm
12:00 PM 58.5°F14.7°C 42.8°F6.0°C 56% 18.3 mph SW29.5 kmh SW 24.4 mph39.3 kmh 29.55 in1000.7 mb 0.00 in0.0 mm 0.00 in0.0 mm 0.00 in0.0 mm
12:15 PM 57.2°F14.0°C 43.5°F6.4°C 60% 10.7 mph WSW17.2 kmh WSW 25.1 mph40.4 kmh 29.54 in1000.3 mb 0.00 in0.0 mm 0.00 in0.0 mm 0.00 in0.0 mm
12:30 PM 57.0°F13.9°C 43.7°F6.5°C 61% 7.6 mph WSW12.2 kmh WSW 26.6 mph42.8 kmh 29.53 in1000.0 mb 0.00 in0.0 mm 0.00 in0.0 mm 0.00 in0.0 mm
12:45 PM 57.2°F14.0°C 43.9°F6.6°C 61% 11.4 mph SW18.3 kmh SW 15.9 mph25.6 kmh 29.53 in1000.0 mb 0.00 in0.0 mm 0.00 in0.0 mm 0.00 in0.0 mm
01:00 PM 57.2°F14.0°C 43.9°F6.6°C 61% 10.7 mph SW17.2 kmh SW 23.5 mph37.8 kmh 29.52 in999.7 mb 0.00 in0.0 mm 0.00 in0.0 mm 0.00 in0.0 mm
01:15 PM 57.9°F14.4°C 44.6°F7.0°C 61% 11.4 mph WSW18.3 kmh WSW 16.8 mph27.0 kmh 29.51 in999.3 mb 0.00 in0.0 mm 0.00 in0.0 mm 0.00 in0.0 mm
01:30 PM 58.3°F14.6°C 44.9°F7.2°C 61% 13.6 mph WSW21.9 kmh WSW 22.8 mph36.7 kmh 29.52 in999.7 mb 0.00 in0.0 mm 0.00 in0.0 mm 0.00 in0.0 mm
01:45 PM 58.1°F14.5°C 44.7°F7.1°C 61% 9.8 mph WSW15.8 kmh WSW 23.5 mph37.8 kmh 29.51 in999.3 mb 0.00 in0.0 mm 0.00 in0.0 mm 0.00 in0.0 mm
02:00 PM 57.9°F14.4°C 45.4°F7.4°C 63% 13.0 mph WSW20.9 kmh WSW 18.3 mph29.5 kmh 29.50 in999.0 mb 0.00 in0.0 mm 0.00 in0.0 mm 0.00 in0.0 mm
02:15 PM 58.6°F14.8°C 45.2°F7.3°C 61% 13.6 mph SW21.9 kmh SW 19.7 mph31.7 kmh 29.50 in999.0 mb 0.00 in0.0 mm 0.00 in0.0 mm 0.00 in0.0 mm
02:30 PM 58.6°F14.8°C 45.2°F7.3°C 61% 8.3 mph WSW13.4 kmh WSW 24.4 mph39.3 kmh 29.49 in998.6 mb 0.00 in0.0 mm 0.00 in0.0 mm 0.00 in0.0 mm
02:45 PM 58.3°F14.6°C 44.9°F7.2°C 61% 13.0 mph WSW20.9 kmh WSW 19.0 mph30.6 kmh 29.49 in998.6 mb 0.00 in0.0 mm 0.00 in0.0 mm 0.00 in0.0 mm
03:00 PM 58.3°F14.6°C 44.9°F7.2°C 61% 11.4 mph SW18.3 kmh SW 16.8 mph27.0 kmh 29.48 in998.3 mb 0.00 in0.0 mm 0.00 in0.0 mm 0.00 in0.0 mm
03:15 PM 58.6°F14.8°C 45.2°F7.3°C 61% 12.1 mph SW19.5 kmh SW 19.0 mph30.6 kmh 29.48 in998.3 mb 0.00 in0.0 mm 0.00 in0.0 mm 0.00 in0.0 mm
03:30 PM 58.1°F14.5°C 45.2°F7.3°C 62% 9.8 mph SW15.8 kmh SW 18.3 mph29.5 kmh 29.48 in998.3 mb 0.00 in0.0 mm 0.00 in0.0 mm 0.00 in0.0 mm
03:45 PM 58.8°F14.9°C 45.4°F7.4°C 61% 6.9 mph WSW11.1 kmh WSW 19.7 mph31.7 kmh 29.47 in998.0 mb 0.00 in0.0 mm 0.00 in0.0 mm 0.00 in0.0 mm
04:00 PM 58.6°F14.8°C 45.2°F7.3°C 61% 6.0 mph SW9.7 kmh SW 22.8 mph36.7 kmh 29.46 in997.6 mb 0.00 in0.0 mm 0.00 in0.0 mm 0.00 in0.0 mm
04:15 PM 58.5°F14.7°C 45.5°F7.5°C 62% 9.2 mph WSW14.8 kmh WSW 21.3 mph34.3 kmh 29.46 in997.6 mb 0.00 in0.0 mm 0.00 in0.0 mm 0.00 in0.0 mm
04:30 PM 59.0°F15.0°C 45.1°F7.3°C 60% 12.1 mph SW19.5 kmh SW 22.1 mph35.6 kmh 29.45 in997.3 mb 0.00 in0.0 mm 0.00 in0.0 mm 0.00 in0.0 mm
04:45 PM 58.5°F14.7°C 45.1°F7.3°C 61% 17.4 mph SW28.0 kmh SW 19.7 mph31.7 kmh 29.43 in996.6 mb 0.00 in0.0 mm 0.00 in0.0 mm 0.00 in0.0 mm
05:00 PM 58.6°F14.8°C 45.7°F7.6°C 62% 12.1 mph WSW19.5 kmh WSW 22.1 mph35.6 kmh 29.44 in997.0 mb 0.00 in0.0 mm 0.00 in0.0 mm 0.00 in0.0 mm
05:15 PM 58.6°F14.8°C 45.2°F7.3°C 61% 12.1 mph WSW19.5 kmh WSW 19.7 mph31.7 kmh 29.44 in997.0 mb 0.00 in0.0 mm 0.00 in0.0 mm 0.00 in0.0 mm
05:30 PM 58.1°F14.5°C 44.7°F7.1°C 61% 14.5 mph WSW23.3 kmh WSW 22.8 mph36.7 kmh 29.45 in997.3 mb 0.00 in0.0 mm 0.00 in0.0 mm 0.00 in0.0 mm
05:45 PM 57.7°F14.3°C 44.4°F6.9°C 61% 9.2 mph W14.8 kmh W 15.9 mph25.6 kmh 29.45 in997.3 mb 0.00 in0.0 mm 0.00 in0.0 mm 0.00 in0.0 mm
06:00 PM 57.4°F14.1°C 44.5°F6.9°C 62% 6.9 mph WSW11.1 kmh WSW 18.3 mph29.5 kmh 29.45 in997.3 mb 0.00 in0.0 mm 0.00 in0.0 mm 0.00 in0.0 mm
06:15 PM 57.0°F13.9°C 45.0°F7.2°C 64% 9.2 mph SW14.8 kmh SW 21.3 mph34.3 kmh 29.46 in997.6 mb 0.00 in0.0 mm 0.00 in0.0 mm 0.00 in0.0 mm
06:30 PM 56.3°F13.5°C 45.1°F7.3°C 66% 7.6 mph SW12.2 kmh SW 15.9 mph25.6 kmh 29.46 in997.6 mb 0.00 in0.0 mm 0.00 in0.0 mm 0.00 in0.0 mm
06:45 PM 56.3°F13.5°C 45.1°F7.3°C 66% 9.8 mph WSW15.8 kmh WSW 13.6 mph21.9 kmh 29.48 in998.3 mb 0.00 in0.0 mm 0.00 in0.0 mm 0.00 in0.0 mm
07:00 PM 56.5°F13.6°C 45.7°F7.6°C 67% 6.9 mph WSW11.1 kmh WSW 12.1 mph19.5 kmh 29.49 in998.6 mb 0.00 in0.0 mm 0.00 in0.0 mm 0.00 in0.0 mm
07:15 PM 55.4°F13.0°C 46.2°F7.9°C 71% 4.5 mph WSW7.2 kmh WSW 15.2 mph24.5 kmh 29.51 in999.3 mb 0.01 in0.3 mm 0.04 in1.0 mm 0.01 in0.3 mm
07:30 PM 53.4°F11.9°C 43.9°F6.6°C 70% 13.6 mph SW21.9 kmh SW 24.4 mph39.3 kmh 29.51 in999.3 mb 0.07 in1.8 mm 0.24 in6.1 mm 0.07 in1.8 mm
07:45 PM 53.2°F11.8°C 42.2°F5.7°C 66% 10.7 mph WSW17.2 kmh WSW 20.6 mph33.2 kmh 29.51 in999.3 mb 0.07 in1.8 mm 0.00 in0.0 mm 0.07 in1.8 mm
09:00 PM 54.5°F12.5°C 37.7°F3.2°C 53% 5.4 mph SW8.7 kmh SW 15.2 mph24.5 kmh 29.56 in1001.0 mb 0.00 in0.0 mm 0.00 in0.0 mm 0.07 in1.8 mm
09:15 PM 54.3°F12.4°C 37.6°F3.1°C 53% 6.0 mph W9.7 kmh W 14.5 mph23.3 kmh 29.57 in1001.4 mb 0.00 in0.0 mm 0.00 in0.0 mm 0.07 in1.8 mm
09:30 PM 53.4°F11.9°C 37.2°F2.9°C 54% 9.2 mph WSW14.8 kmh WSW 14.5 mph23.3 kmh 29.58 in1001.7 mb 0.00 in0.0 mm 0.00 in0.0 mm 0.07 in1.8 mm
09:45 PM 53.2°F11.8°C 37.0°F2.8°C 54% 4.5 mph WSW7.2 kmh WSW 11.4 mph18.3 kmh 29.59 in1002.0 mb 0.00 in0.0 mm 0.00 in0.0 mm 0.07 in1.8 mm
10:00 PM 52.7°F11.5°C 39.2°F4.0°C 60% 7.6 mph WSW12.2 kmh WSW 17.4 mph28.0 kmh 29.60 in1002.4 mb 0.00 in0.0 mm 0.00 in0.0 mm 0.07 in1.8 mm
10:15 PM 52.7°F11.5°C 39.2°F4.0°C 60% 14.5 mph SW23.3 kmh SW 22.1 mph35.6 kmh 29.61 in1002.7 mb 0.00 in0.0 mm 0.00 in0.0 mm 0.07 in1.8 mm
10:30 PM 52.2°F11.2°C 38.3°F3.5°C 59% 8.3 mph W13.4 kmh W 18.3 mph29.5 kmh 29.62 in1003.0 mb 0.00 in0.0 mm 0.00 in0.0 mm 0.07 in1.8 mm
10:45 PM 51.4°F10.8°C 37.6°F3.1°C 59% 9.8 mph WSW15.8 kmh WSW 15.2 mph24.5 kmh 29.63 in1003.4 mb 0.00 in0.0 mm 0.00 in0.0 mm 0.07 in1.8 mm
11:00 PM 51.1°F10.6°C 37.7°F3.2°C 60% 6.0 mph WSW9.7 kmh WSW 13.6 mph21.9 kmh 29.63 in1003.4 mb 0.00 in0.0 mm 0.00 in0.0 mm 0.07 in1.8 mm
11:15 PM 50.7°F10.4°C 37.4°F3.0°C 60% 6.0 mph W9.7 kmh W 13.0 mph20.9 kmh 29.64 in1003.7 mb 0.00 in0.0 mm 0.00 in0.0 mm 0.07 in1.8 mm
11:30 PM 50.5°F10.3°C 37.2°F2.9°C 60% 6.0 mph SW9.7 kmh SW 18.3 mph29.5 kmh 29.64 in1003.7 mb 0.00 in0.0 mm 0.00 in0.0 mm 0.07 in1.8 mm
11:45 PM 50.4°F10.2°C 37.0°F2.8°C 60% 7.6 mph SW12.2 kmh SW 17.4 mph28.0 kmh 29.66 in1004.4 mb 0.00 in0.0 mm 0.00 in0.0 mm 0.07 in1.8 mm